Archival Weather

Snohomish County (Paine Fld)

Everett, Washington (KPAE)

Report from: Wednesday, November 15, 2023 9:32 PM PST
Current time: Friday, June 21, 2024 1:42 AM PDT

Current weather – Weather history – Daily summaries
Weather forecast

Temperature3.9°C (39.0°F)
Dew point2.2°C (36.0°F)
Winds Calm
Visibility9 mi. (14.5 km)
Clouds Scattered clouds 700 ft. (213 m)
Altimeter30.04 in.Hg (1017 mB)
Relative humidity89 %
Density altitude-1,375 ft. (-419 m)
Remarks Fully automated report
Automated weather observing station with precipitation discriminator
Flight conditions Visual Meteorological Conditions
Raw dataKPAE 160532Z AUTO 00000KT 9SM SCT007 04/02 A3004 RMK AO2 T00390022
An error has occurred. This application may no longer respond until reloaded. Reload 🗙